Amador Station, California
Current Conditions -  °F | °C
As of 6:15 PM on Sunday 25 Jan 2015 (Local Time) from KPVF Reporting Station
Clear Clear  
Wind Chill: 61°   Ceiling: Unl
Heat Index: 61°   Visibility: 10mi
Dew Point: 39°   Wind: 0mph
Humidity: 45%   Direction: NA
Pressure: 30.06"   Gusts: NA
Location:  38.5644°N, 120.32°W
Report Text: KPVF 260215Z AUTO 00000KT 10SM CLR 16/04 A3006 RMK AO1
Loading
Personal Weather Stations






























Interactive Weather Map New forecast layout! Learn more

10-Day Weather Forecast

Advertisements
Track Severe Weather on mobile